Time;durP1;ratioP1;P1;durP2;ratioP2;P2;SDS_P1;SDS_P2;PMS_P1;PMS_P2;Temp;Humidity;BMP_temperature;BMP_pressure;BME280_temperature;BME280_humidity;BME280_pressure;Samples;Min_cycle;Max_cycle;Signal;HPM_P1;HPM_P2
2022/08/26 00:00:04;;;;;;;;;4.33;4.33;;;;;22.96;100.00;101436.94;5036884;28;45338;-74
2022/08/26 00:02:29;;;;;;;;;4.33;3.00;;;;;22.89;100.00;101426.38;5036147;28;45418;-76
2022/08/26 00:04:54;;;;;;;;;4.00;4.00;;;;;22.89;100.00;101429.06;5035083;28;57272;-73
2022/08/26 00:07:20;;;;;;;;;3.00;3.00;;;;;22.86;100.00;101435.41;5032976;28;65716;-73
2022/08/26 00:09:45;;;;;;;;;5.00;4.00;;;;;22.81;100.00;101431.09;5035119;28;45291;-73
2022/08/26 00:12:11;;;;;;;;;4.67;3.00;;;;;22.80;100.00;101435.59;5035998;28;54739;-76
2022/08/26 00:14:36;;;;;;;;;3.33;3.33;;;;;22.77;100.00;101438.38;5036275;28;45612;-73
2022/08/26 00:17:02;;;;;;;;;3.00;3.00;;;;;22.81;100.00;101452.63;5035666;28;63576;-73
2022/08/26 00:19:27;;;;;;;;;3.00;3.00;;;;;22.77;100.00;101449.16;5036348;28;45305;-73
2022/08/26 00:21:53;;;;;;;;;3.33;3.33;;;;;22.75;100.00;101451.00;5035327;28;45507;-77
2022/08/26 00:24:19;;;;;;;;;3.33;3.33;;;;;22.72;100.00;101460.03;5035764;28;45500;-73
2022/08/26 00:26:45;;;;;;;;;4.00;4.00;;;;;22.71;100.00;101450.22;5034286;28;45956;-73
2022/08/26 00:29:11;;;;;;;;;4.00;4.00;;;;;22.68;100.00;101444.03;5016815;28;45362;-73
2022/08/26 00:31:36;;;;;;;;;3.00;3.00;;;;;22.69;100.00;101445.78;5036104;28;46849;-73
2022/08/26 00:34:01;;;;;;;;;4.33;4.33;;;;;22.71;100.00;101443.94;5035894;28;45581;-73
2022/08/26 00:36:27;;;;;;;;;5.00;5.00;;;;;22.76;100.00;101458.16;5035027;28;61068;-77
2022/08/26 00:38:52;;;;;;;;;5.00;5.00;;;;;22.74;100.00;101458.22;5015474;28;45370;-73
2022/08/26 00:41:18;;;;;;;;;6.00;5.00;;;;;22.71;100.00;101454.72;5016462;28;45399;-78
2022/08/26 00:43:44;;;;;;;;;4.00;4.00;;;;;22.76;100.00;101455.47;5017365;28;45457;-73
2022/08/26 00:46:13;;;;;;;;;4.33;4.00;;;;;22.70;100.00;101458.34;5033912;28;69523;-73
2022/08/26 00:48:42;;;;;;;;;7.67;5.00;;;;;22.69;100.00;101454.78;5034845;28;45387;-73
2022/08/26 00:51:13;;;;;;;;;7.67;6.33;;;;;22.66;100.00;101451.28;5010854;28;46807;-73
2022/08/26 00:53:50;;;;;;;;;6.33;5.00;;;;;22.63;100.00;101457.63;5017137;28;45730;-76
2022/08/26 00:56:31;;;;;;;;;6.67;5.00;;;;;22.59;100.00;101453.28;5035271;28;45353;-79
2022/08/26 00:59:00;;;;;;;;;8.33;7.00;;;;;22.62;100.00;101454.97;5016267;28;45412;-73
2022/08/26 01:01:27;;;;;;;;;5.00;5.00;;;;;22.61;100.00;101451.41;5036006;28;45231;-73
2022/08/26 01:03:52;;;;;;;;;4.00;4.00;;;;;22.60;100.00;101449.66;5035981;28;45329;-75
2022/08/26 01:06:18;;;;;;;;;3.67;3.67;;;;;22.59;100.00;101450.59;5015989;28;45533;-73
2022/08/26 01:08:44;;;;;;;;;9.00;6.33;;;;;22.55;100.00;101445.31;5034216;28;64752;-73
2022/08/26 01:11:10;;;;;;;;;5.67;5.67;;;;;22.51;100.00;101449.03;5030872;28;45448;-73
2022/08/26 01:13:36;;;;;;;;;6.00;6.00;;;;;22.46;100.00;101447.34;5016969;28;45572;-76
2022/08/26 01:16:04;;;;;;;;;6.67;6.67;;;;;22.48;100.00;101452.69;5016958;28;45978;-73
2022/08/26 01:18:30;;;;;;;;;6.33;6.33;;;;;22.41;100.00;101449.28;5017240;28;45612;-74
2022/08/26 01:21:30;;;;;;;;;6.67;6.67;;;;;22.39;100.00;101445.75;5035078;28;45409;-73
2022/08/26 01:23:56;;;;;;;;;6.33;6.33;;;;;22.38;100.00;101446.69;5028475;28;45374;-73
2022/08/26 01:26:25;;;;;;;;;7.33;7.00;;;;;22.39;100.00;101458.34;5016743;28;46340;-77
2022/08/26 01:28:53;;;;;;;;;8.00;8.00;;;;;22.34;100.00;101453.06;5009886;28;45978;-78
2022/08/26 01:31:23;;;;;;;;;8.67;8.67;;;;;22.32;100.00;101448.66;5033002;28;45537;-73
2022/08/26 01:33:56;;;;;;;;;9.67;8.00;;;;;22.33;100.00;101450.44;5007893;28;45484;-73
2022/08/26 01:36:22;;;;;;;;;9.00;8.33;;;;;22.31;100.00;101449.56;5035276;28;45686;-73
2022/08/26 01:38:47;;;;;;;;;9.00;9.00;;;;;22.32;100.00;101456.72;5035152;28;45416;-75
2022/08/26 01:41:13;;;;;;;;;7.00;7.00;;;;;22.31;100.00;101461.22;5014376;28;63401;-75
2022/08/26 01:43:40;;;;;;;;;8.00;8.00;;;;;22.31;100.00;101452.25;5015225;28;45608;-74
2022/08/26 01:46:06;;;;;;;;;8.33;8.33;;;;;22.29;100.00;101454.13;5034507;28;46475;-76
2022/08/26 01:48:33;;;;;;;;;10.67;10.00;;;;;22.27;100.00;101462.25;5016134;28;45296;-78
2022/08/26 01:51:00;;;;;;;;;9.00;9.00;;;;;22.26;100.00;101454.19;5015148;28;45613;-79
2022/08/26 01:53:26;;;;;;;;;10.67;10.00;;;;;22.25;100.00;101457.81;5015358;28;45501;-76
2022/08/26 01:55:54;;;;;;;;;10.33;10.33;;;;;22.26;100.00;101454.19;5035303;28;46498;-76
2022/08/26 01:58:24;;;;;;;;;10.67;9.00;;;;;22.21;100.00;101449.84;5034981;28;45501;-73
2022/08/26 02:00:50;;;;;;;;;12.67;12.67;;;;;22.18;100.00;101452.63;5037752;28;45507;-73
2022/08/26 02:03:15;;;;;;;;;15.00;10.33;;;;;22.13;100.00;101441.09;5036401;28;45385;-73
2022/08/26 02:05:43;;;;;;;;;14.67;14.00;;;;;22.16;100.00;101456.28;5020442;28;46616;-73
2022/08/26 02:08:09;;;;;;;;;13.67;10.67;;;;;22.17;100.00;101455.34;5037742;28;45428;-73
2022/08/26 02:10:36;;;;;;;;;11.67;11.67;;;;;22.18;100.00;101462.50;5018930;28;45482;-74
2022/08/26 02:13:01;;;;;;;;;12.67;12.33;;;;;22.17;100.00;101460.72;5037776;28;45461;-73
2022/08/26 02:15:27;;;;;;;;;11.33;11.33;;;;;22.12;100.00;101454.59;5018092;28;46470;-73
2022/08/26 02:17:52;;;;;;;;;13.00;13.00;;;;;22.09;100.00;101460.88;5018326;28;69527;-73
2022/08/26 02:20:19;;;;;;;;;12.67;12.67;;;;;22.11;100.00;101471.66;5038010;28;45492;-77
2022/08/26 02:22:46;;;;;;;;;6.33;6.33;;;;;22.09;100.00;101465.38;5037554;28;45951;-73
2022/08/26 02:25:43;;;;;;;;;13.67;11.33;;;;;22.08;100.00;101471.69;5032885;28;46769;-79
2022/08/26 02:28:10;;;;;;;;;16.00;13.67;;;;;22.04;100.00;101476.25;4986777;28;45480;-73
2022/08/26 02:30:37;;;;;;;;;13.67;13.67;;;;;22.00;100.00;101471.00;5036271;28;45464;-76
2022/08/26 02:33:03;;;;;;;;;14.67;13.00;;;;;21.95;100.00;101458.59;5019487;28;45541;-73
2022/08/26 02:35:30;;;;;;;;;8.33;8.33;;;;;21.94;100.00;101464.88;5037837;28;45413;-73
2022/08/26 02:37:56;;;;;;;;;15.00;13.33;;;;;21.87;100.00;101455.19;5037748;28;45333;-78
2022/08/26 02:40:25;;;;;;;;;15.33;13.67;;;;;21.88;100.00;101465.03;5035749;28;45581;-72
2022/08/26 02:42:50;;;;;;;;;15.67;14.67;;;;;21.82;100.00;101457.13;5018527;28;45545;-73
2022/08/26 02:45:17;;;;;;;;;13.00;12.00;;;;;21.79;100.00;101459.91;5035799;28;45744;-73
2022/08/26 02:47:43;;;;;;;;;15.33;13.33;;;;;21.80;100.00;101458.09;5037040;28;45294;-78
2022/08/26 02:50:09;;;;;;;;;13.67;12.67;;;;;21.81;100.00;101463.44;5018700;28;45390;-74
2022/08/26 02:52:35;;;;;;;;;12.33;12.33;;;;;21.81;100.00;101466.09;5036721;28;46271;-76
2022/08/26 02:55:00;;;;;;;;;13.67;12.67;;;;;21.79;100.00;101467.97;5018103;28;46357;-73
2022/08/26 02:57:26;;;;;;;;;13.00;12.33;;;;;21.77;100.00;101458.16;5037647;28;45427;-74
2022/08/26 02:59:51;;;;;;;;;14.67;14.00;;;;;21.77;100.00;101468.91;5018499;28;66077;-74
2022/08/26 03:02:17;;;;;;;;;18.00;18.00;;;;;21.75;100.00;101466.28;5036423;28;56621;-73
2022/08/26 03:04:42;;;;;;;;;16.67;15.00;;;;;21.73;100.00;101456.47;5036034;28;45678;-73
2022/08/26 03:07:07;;;;;;;;;19.67;18.67;;;;;21.68;100.00;101460.19;5018517;28;45736;-73
2022/08/26 03:09:33;;;;;;;;;14.67;12.33;;;;;21.66;100.00;101459.31;5033750;28;59094;-73
2022/08/26 03:11:58;;;;;;;;;16.67;16.67;;;;;21.65;100.00;101459.34;5034224;28;45692;-73
2022/08/26 03:14:24;;;;;;;;;19.33;17.33;;;;;21.64;100.00;101454.91;5035389;28;67111;-73
2022/08/26 03:16:52;;;;;;;;;20.00;18.67;;;;;21.66;100.00;101467.38;5036609;28;45525;-73
2022/08/26 03:19:18;;;;;;;;;18.00;18.00;;;;;21.62;100.00;101454.91;5037496;28;45564;-73
2022/08/26 03:21:43;;;;;;;;;20.67;17.33;;;;;21.65;100.00;101459.34;5036557;28;58788;-73
2022/08/26 03:24:10;;;;;;;;;17.00;14.67;;;;;21.66;100.00;101471.88;5035112;28;66736;-76
2022/08/26 03:26:35;;;;;;;;;15.67;15.67;;;;;21.62;100.00;101462.09;5036189;28;45365;-76
2022/08/26 03:31:44;;;;;;;;;14.33;14.33;;;;;21.60;100.00;101453.22;5036682;28;45370;-73
2022/08/26 03:34:09;;;;;;;;;19.67;17.33;;;;;21.65;100.00;101464.72;5036537;28;46430;-73
2022/08/26 03:36:35;;;;;;;;;17.67;16.33;;;;;21.61;100.00;101458.53;5037270;28;45334;-74
2022/08/26 03:39:01;;;;;;;;;17.67;17.67;;;;;21.55;100.00;101458.69;5036656;28;46576;-73
2022/08/26 03:41:26;;;;;;;;;19.67;19.67;;;;;21.51;100.00;101448.94;5034612;28;45923;-74
2022/08/26 03:43:51;;;;;;;;;18.67;17.33;;;;;21.47;100.00;101454.44;5018827;28;45761;-78
2022/08/26 03:46:19;;;;;;;;;18.00;18.00;;;;;21.54;100.00;101466.81;5033506;28;63798;-73
2022/08/26 03:48:44;;;;;;;;;16.67;15.67;;;;;21.50;100.00;101457.03;5016502;28;45516;-73
2022/08/26 03:51:12;;;;;;;;;19.67;16.00;;;;;21.53;100.00;101467.72;5036691;28;45630;-73
2022/08/26 03:53:37;;;;;;;;;18.00;16.67;;;;;21.50;100.00;101462.41;5035680;28;46486;-73
2022/08/26 03:56:02;;;;;;;;;17.33;17.33;;;;;21.47;100.00;101457.13;5034887;28;64431;-74
2022/08/26 03:58:29;;;;;;;;;21.33;17.33;;;;;21.48;100.00;101459.78;5000310;28;45349;-76
2022/08/26 04:00:55;;;;;;;;;18.00;16.67;;;;;21.41;100.00;101459.03;5034934;28;45449;-73
2022/08/26 04:03:56;;;;;;;;;19.67;19.67;;;;;21.42;100.00;101460.81;5033667;28;65217;-73
2022/08/26 04:06:06;;;;;;;;;19.00;18.00;;;;;21.36;100.00;101451.97;5030603;28;45628;-73
2022/08/26 04:08:31;;;;;;;;;24.00;17.67;;;;;21.30;100.00;101450.31;5036117;28;45385;-73
2022/08/26 04:10:57;;;;;;;;;20.33;18.33;;;;;21.34;100.00;101464.59;5035937;28;57312;-76
2022/08/26 04:13:22;;;;;;;;;25.67;18.67;;;;;21.24;100.00;101447.75;5017446;28;46297;-73
2022/08/26 04:15:47;;;;;;;;;18.00;16.33;;;;;21.30;100.00;101461.06;5034796;28;62482;-73
2022/08/26 04:18:13;;;;;;;;;16.00;14.33;;;;;21.26;100.00;101459.38;5033740;28;61774;-73
2022/08/26 04:20:38;;;;;;;;;18.33;18.33;;;;;21.22;100.00;101457.66;5034915;28;61577;-73
2022/08/26 04:23:03;;;;;;;;;24.33;21.00;;;;;21.23;100.00;101461.22;5034335;28;70116;-78
2022/08/26 04:25:29;;;;;;;;;21.67;18.67;;;;;21.21;100.00;101463.09;5034841;28;58898;-73
2022/08/26 04:27:54;;;;;;;;;25.67;22.00;;;;;21.18;100.00;101464.00;5031446;28;57108;-73
2022/08/26 04:30:20;;;;;;;;;21.33;18.33;;;;;21.12;100.00;101450.72;5032756;28;62516;-73
2022/08/26 04:32:45;;;;;;;;;20.00;19.33;;;;;21.13;100.00;101464.13;5018311;28;46214;-77
2022/08/26 04:35:10;;;;;;;;;26.00;22.33;;;;;21.10;100.00;101471.38;5035564;28;45506;-73
2022/08/26 04:37:36;;;;;;;;;23.33;22.67;;;;;21.03;100.00;101459.88;5032074;28;49407;-72
2022/08/26 04:40:03;;;;;;;;;22.67;20.33;;;;;21.06;100.00;101472.34;5033105;28;45625;-72
2022/08/26 04:42:28;;;;;;;;;22.33;17.67;;;;;21.03;100.00;101469.72;5035200;28;45809;-77
2022/08/26 04:44:54;;;;;;;;;24.67;23.67;;;;;21.01;100.00;101477.81;5036031;28;45178;-73
2022/08/26 04:47:19;;;;;;;;;23.00;20.67;;;;;20.98;100.00;101468.94;5017751;28;45493;-75
2022/08/26 04:49:44;;;;;;;;;24.33;23.00;;;;;21.04;100.00;101476.84;5034930;28;45324;-72
2022/08/26 04:52:10;;;;;;;;;22.33;19.00;;;;;21.02;100.00;101471.53;4999651;28;73262;-72
2022/08/26 04:54:36;;;;;;;;;28.00;24.33;;;;;20.99;100.00;101468.94;5017143;28;45523;-73
2022/08/26 04:57:01;;;;;;;;;27.33;21.67;;;;;21.08;100.00;101478.56;5017240;28;45959;-72
2022/08/26 04:59:26;;;;;;;;;19.00;19.00;;;;;21.09;100.00;101483.94;5036353;28;45544;-76
2022/08/26 05:01:58;;;;;;;;;25.33;22.67;;;;;21.11;100.00;101482.06;5035709;28;45629;-77
2022/08/26 05:04:24;;;;;;;;;23.00;21.00;;;;;21.14;100.00;101484.69;5014162;28;46020;-73
2022/08/26 05:06:49;;;;;;;;;30.67;24.67;;;;;21.16;100.00;101482.88;5034401;28;59905;-74
2022/08/26 05:09:17;;;;;;;;;23.00;21.00;;;;;21.18;100.00;101489.06;5034917;28;50483;-75
2022/08/26 05:11:42;;;;;;;;;28.00;23.00;;;;;21.22;100.00;101497.94;5034721;28;46774;-72
2022/08/26 05:14:08;;;;;;;;;29.00;23.33;;;;;21.22;100.00;101503.31;5014281;28;60372;-74
2022/08/26 05:16:33;;;;;;;;;25.67;20.67;;;;;21.21;100.00;101495.31;5035240;28;45386;-76
2022/08/26 05:18:59;;;;;;;;;23.67;23.67;;;;;21.22;100.00;101497.06;5018419;28;45382;-72
2022/08/26 05:21:26;;;;;;;;;21.00;21.00;;;;;21.26;100.00;101510.41;5034080;28;69276;-75
2022/08/26 05:23:53;;;;;;;;;24.67;18.67;;;;;21.28;100.00;101497.81;5016602;28;45378;-72
2022/08/26 05:26:20;;;;;;;;;24.00;21.67;;;;;21.32;100.00;101510.28;5014366;28;45619;-74
2022/08/26 05:28:46;;;;;;;;;20.33;20.33;;;;;21.33;100.00;101508.50;5028164;28;45346;-72
2022/08/26 05:31:15;;;;;;;;;24.67;20.67;;;;;21.39;100.00;101514.59;5032064;28;46984;-78
2022/08/26 05:33:40;;;;;;;;;27.33;20.00;;;;;21.39;100.00;101525.34;5033870;28;45449;-72
2022/08/26 05:36:11;;;;;;;;;25.00;25.00;;;;;21.37;100.00;101516.44;5034195;28;45300;-68
2022/08/26 05:38:36;;;;;;;;;23.33;23.33;;;;;21.39;100.00;101530.72;5028041;28;45683;-72
2022/08/26 05:41:02;;;;;;;;;24.33;23.33;;;;;21.41;100.00;101530.69;5030760;28;62533;-72
2022/08/26 05:43:27;;;;;;;;;22.33;20.00;;;;;21.38;100.00;101520.91;5030590;28;45526;-75
2022/08/26 05:45:53;;;;;;;;;27.67;27.33;;;;;21.39;100.00;101527.16;5033139;28;45519;-73
2022/08/26 05:48:19;;;;;;;;;27.00;23.67;;;;;21.35;100.00;101518.25;5032620;28;46377;-73
2022/08/26 05:50:47;;;;;;;;;24.33;22.00;;;;;21.38;100.00;101528.06;5033429;28;45495;-72
2022/08/26 05:53:14;;;;;;;;;27.33;20.33;;;;;21.42;100.00;101527.09;5032913;28;45429;-72
2022/08/26 05:55:45;;;;;;;;;20.00;19.33;;;;;21.39;100.00;101525.34;5032008;28;45468;-72
2022/08/26 05:58:11;;;;;;;;;24.00;20.67;;;;;21.47;100.00;101535.06;5030987;28;45904;-71
2022/08/26 06:00:37;;;;;;;;;31.00;22.33;;;;;21.51;100.00;101536.72;5028037;28;45648;-74
2022/08/26 06:03:03;;;;;;;;;30.00;24.67;;;;;21.54;100.00;101533.97;5014221;28;45584;-73
2022/08/26 06:05:28;;;;;;;;;21.00;20.00;;;;;21.52;100.00;101530.44;5033779;28;45531;-71
2022/08/26 06:10:51;;;;;;;;;25.67;21.00;;;;;21.57;100.00;101528.53;5031222;28;45355;-75
2022/08/26 06:13:19;;;;;;;;;20.00;20.00;;;;;21.63;100.00;101531.09;5031763;28;46870;-73
2022/08/26 06:15:47;;;;;;;;;21.33;21.00;;;;;21.65;100.00;101532.81;5033816;28;45427;-75
2022/08/26 06:18:14;;;;;;;;;22.33;18.67;;;;;21.73;100.00;101537.97;5002268;28;45544;-73
2022/08/26 06:20:43;;;;;;;;;23.67;23.67;;;;;21.75;100.00;101535.28;5028773;28;47233;-74
2022/08/26 06:25:54;;;;;;;;;20.33;18.67;;;;;21.80;100.00;101525.31;5019471;28;45602;-74
2022/08/26 06:28:19;;;;;;;;;25.00;21.67;;;;;21.86;100.00;101531.41;5031018;28;45677;-74
2022/08/26 06:30:45;;;;;;;;;6.33;5.33;;;;;21.85;100.00;101524.28;5033885;28;45445;-74
2022/08/26 06:33:10;;;;;;;;;25.00;20.67;;;;;21.90;100.00;101526.84;5016315;28;56843;-76
2022/08/26 06:35:37;;;;;;;;;17.33;15.67;;;;;21.89;100.00;101519.69;5034183;28;55716;-76
2022/08/26 06:38:04;;;;;;;;;23.33;19.00;;;;;21.92;100.00;101515.13;5035097;28;45218;-78
2022/08/26 06:41:01;;;;;;;;;18.67;17.33;;;;;22.04;100.00;101526.47;5015988;28;45705;-76
2022/08/26 06:43:28;;;;;;;;;20.67;19.67;;;;;22.05;100.00;101523.78;5032854;28;45437;-76
2022/08/26 06:46:05;;;;;;;;;20.00;17.67;;;;;22.07;100.00;101526.41;5012299;28;45553;-73
2022/08/26 06:48:31;;;;;;;;;17.33;17.00;;;;;22.08;100.00;101509.34;5032792;28;46457;-74
2022/08/26 06:51:09;;;;;;;;;22.00;18.33;;;;;22.13;100.00;101537.94;5015800;28;46387;-72
2022/08/26 06:53:35;;;;;;;;;23.00;21.67;;;;;22.11;100.00;101536.22;5005289;28;45601;-72
2022/08/26 06:56:04;;;;;;;;;20.00;17.67;;;;;22.12;100.00;101540.66;5016514;28;45476;-72
2022/08/26 06:58:30;;;;;;;;;21.33;19.00;;;;;22.07;100.00;101531.81;5034928;28;45642;-73
2022/08/26 07:00:56;;;;;;;;;17.33;17.33;;;;;22.10;100.00;101542.47;5031819;28;45552;-72
2022/08/26 07:03:21;;;;;;;;;21.00;20.33;;;;;22.12;100.00;101548.75;5037200;28;45569;-72
2022/08/26 07:05:48;;;;;;;;;19.33;17.00;;;;;22.11;100.00;101538.91;5037401;28;45374;-72
2022/08/26 07:08:12;;;;;;;;;19.67;17.00;;;;;22.09;100.00;101540.69;5188676;22;45690;-73
2022/08/26 07:10:38;;;;;;;;;20.00;20.00;;;;;22.14;100.00;101549.56;5053398;28;66343;-75
2022/08/26 07:13:03;;;;;;;;;16.67;15.00;;;;;22.15;100.00;101540.56;5068018;28;62755;-72
2022/08/26 07:15:29;;;;;;;;;19.00;17.00;;;;;22.13;100.00;101532.53;5058667;28;59115;-75
2022/08/26 07:17:54;;;;;;;;;23.67;18.67;;;;;22.17;100.00;101527.97;5063877;28;56219;-73
2022/08/26 07:20:19;;;;;;;;;20.33;16.67;;;;;22.24;100.00;101529.59;5058824;28;69534;-72
2022/08/26 07:22:45;;;;;;;;;18.67;17.67;;;;;22.40;100.00;101533.63;5058488;28;45609;-73
2022/08/26 07:25:10;;;;;;;;;22.33;20.00;;;;;22.52;100.00;101540.47;5066965;28;53827;-73
2022/08/26 07:27:37;;;;;;;;;15.67;14.33;;;;;22.58;100.00;101534.91;5057090;28;45554;-74
2022/08/26 07:30:05;;;;;;;;;19.00;19.00;;;;;22.62;100.00;101535.72;5043109;28;46316;-75
2022/08/26 07:32:31;;;;;;;;;17.00;16.33;;;;;22.60;100.00;101527.72;5055516;28;45507;-73
2022/08/26 07:34:56;;;;;;;;;23.00;20.67;;;;;22.65;100.00;101535.66;5059020;28;45539;-73
2022/08/26 07:37:22;;;;;;;;;38.00;24.00;;;;;22.64;100.00;101532.09;5055090;28;45502;-72
2022/08/26 07:39:47;;;;;;;;;27.00;24.00;;;;;;;;5070193;28;52633;-71
2022/08/26 07:42:14;;;;;;;;;25.00;23.33;;;;;22.62;100.00;101524.97;5061029;28;45506;-72
2022/08/26 07:44:40;;;;;;;;;21.67;18.00;;;;;22.63;100.00;101545.56;5058402;28;45404;-74
2022/08/26 07:47:07;;;;;;;;;18.00;18.00;;;;;22.54;100.00;101538.66;5066432;28;45586;-74
2022/08/26 07:49:33;;;;;;;;;19.67;17.67;;;;;22.52;100.00;101545.88;5069698;28;45452;-73
2022/08/26 07:51:58;;;;;;;;;24.33;19.67;;;;;22.49;100.00;101538.78;5057152;28;45422;-73
2022/08/26 07:54:25;;;;;;;;;19.00;17.33;;;;;22.54;100.00;101538.66;5057652;28;47856;-74
2022/08/26 07:56:50;;;;;;;;;17.00;17.00;;;;;22.56;100.00;101544.88;5065980;28;45661;-75
2022/08/26 07:59:16;;;;;;;;;21.67;18.00;;;;;22.56;100.00;101534.09;5059880;28;69440;-77
2022/08/26 08:01:42;;;;;;;;;19.00;17.00;;;;;22.56;100.00;101542.16;5059512;28;45451;-73
2022/08/26 08:04:07;;;;;;;;;18.00;17.00;;;;;22.59;100.00;101542.09;5046930;28;46198;-72
2022/08/26 08:06:33;;;;;;;;;14.67;14.67;;;;;22.62;100.00;101541.13;5065232;28;49487;-77
2022/08/26 08:08:59;;;;;;;;;16.67;16.67;;;;;22.63;100.00;101534.81;5053652;28;47336;-74
2022/08/26 08:11:27;;;;;;;;;17.33;14.33;;;;;22.65;100.00;101535.66;5065213;28;45481;-75
2022/08/26 08:13:54;;;;;;;;;18.33;14.33;;;;;22.66;100.00;101534.72;5051260;28;45444;-75
2022/08/26 08:16:19;;;;;;;;;18.67;17.33;;;;;22.77;100.00;101540.69;5054090;28;45579;-74
2022/08/26 08:18:45;;;;;;;;;12.67;12.67;;;;;22.78;100.00;101537.06;5055913;28;45635;-74
2022/08/26 08:21:10;;;;;;;;;13.67;13.67;;;;;22.87;100.00;101531.44;5056576;28;45451;-74
2022/08/26 08:23:35;;;;;;;;;13.67;13.67;;;;;23.00;100.00;101543.63;5054993;28;45937;-76
2022/08/26 08:26:06;;;;;;;;;16.00;15.00;;;;;23.09;100.00;101528.13;5057327;28;46043;-73
2022/08/26 08:28:32;;;;;;;;;13.67;13.67;;;;;23.23;100.00;101540.28;5062630;28;47632;-75
2022/08/26 08:30:57;;;;;;;;;12.33;11.00;;;;;23.34;100.00;101539.94;5059663;28;45519;-74
2022/08/26 08:33:23;;;;;;;;;15.00;11.33;;;;;23.40;100.00;101537.06;5054314;28;45862;-76
2022/08/26 08:35:48;;;;;;;;;13.33;13.00;;;;;23.40;100.00;101528.09;5058836;28;45554;-73
2022/08/26 08:38:14;;;;;;;;;15.33;13.67;;;;;23.45;100.00;101527.00;5061603;28;45735;-73
2022/08/26 08:40:41;;;;;;;;;15.67;13.67;;;;;23.51;100.00;101531.34;5055803;28;45328;-73
2022/08/26 08:43:12;;;;;;;;;13.00;11.33;;;;;23.52;100.00;101535.78;5068297;28;45435;-73
2022/08/26 08:45:48;;;;;;;;;12.00;12.00;;;;;23.58;100.00;101527.50;5038310;28;46964;-74
2022/08/26 08:48:21;;;;;;;;;15.00;13.00;;;;;23.63;100.00;101532.78;5042178;28;46664;-75
2022/08/26 08:50:49;;;;;;;;;11.00;11.00;;;;;23.69;100.00;101529.88;5049468;28;45524;-73
2022/08/26 08:53:23;;;;;;;;;9.33;8.00;;;;;23.76;100.00;101534.16;5048478;28;45629;-73
2022/08/26 08:55:48;;;;;;;;;10.00;10.00;;;;;23.82;100.00;101528.56;5049824;28;45355;-74
2022/08/26 08:58:22;;;;;;;;;9.00;9.00;;;;;23.80;100.00;101522.31;5058826;28;46571;-73
2022/08/26 09:00:53;;;;;;;;;7.00;7.00;;;;;23.94;100.00;101528.16;5064287;28;45493;-74
2022/08/26 09:03:41;;;;;;;;;9.67;9.67;;;;;24.04;100.00;101526.91;5074108;28;45430;-73
2022/08/26 09:06:15;;;;;;;;;13.00;11.00;;;;;24.16;100.00;101522.03;5057180;28;45242;-73
2022/08/26 09:08:43;;;;;;;;;12.67;11.00;;;;;24.24;100.00;101511.84;5055348;28;46731;-74
2022/08/26 09:11:08;;;;;;;;;12.00;10.67;;;;;24.25;100.00;101513.63;5066211;28;45484;-74
2022/08/26 09:13:35;;;;;;;;;12.00;12.00;;;;;24.31;100.00;101524.19;5057620;28;53931;-74
2022/08/26 09:16:07;;;;;;;;;10.00;10.00;;;;;24.25;100.00;101517.19;5041351;28;59571;-74
2022/08/26 09:18:39;;;;;;;;;14.00;14.00;;;;;24.30;100.00;101527.84;5057668;28;47404;-73
2022/08/26 09:21:07;;;;;;;;;12.00;11.00;;;;;24.25;100.00;101521.72;5049589;28;46225;-74
2022/08/26 09:23:35;;;;;;;;;16.00;13.33;;;;;24.22;100.00;101514.59;5060513;28;45405;-74
2022/08/26 09:26:12;;;;;;;;;11.33;11.33;;;;;24.27;100.00;101519.81;5066415;28;46007;-73
2022/08/26 09:28:41;;;;;;;;;11.33;9.33;;;;;24.27;100.00;101518.00;5042222;28;47507;-74
2022/08/26 09:31:12;;;;;;;;;9.67;9.67;;;;;24.27;100.00;101514.44;5064510;28;46470;-72
2022/08/26 09:33:39;;;;;;;;;9.33;9.33;;;;;24.26;100.00;101512.66;5054875;28;45492;-72
2022/08/26 09:36:32;;;;;;;;;9.00;9.00;;;;;24.27;100.00;101519.81;5037854;28;45281;-72
2022/08/26 09:38:57;;;;;;;;;15.33;13.00;;;;;24.30;100.00;101506.25;5049792;28;46434;-72
2022/08/26 09:41:24;;;;;;;;;8.33;8.33;;;;;24.37;100.00;101513.22;5055110;28;45559;-71
2022/08/26 09:44:10;;;;;;;;;8.67;8.67;;;;;24.44;100.00;101511.16;5064191;28;45515;-73
2022/08/26 09:46:38;;;;;;;;;10.67;9.00;;;;;24.51;100.00;101500.09;5043115;28;45547;-73
2022/08/26 09:49:43;;;;;;;;;10.00;8.67;;;;;24.67;100.00;101511.22;5038383;28;47295;-73
2022/08/26 09:52:23;;;;;;;;;11.00;10.67;;;;;24.74;100.00;101515.47;5061501;28;45371;-71
2022/08/26 09:55:11;;;;;;;;;8.33;8.33;;;;;24.78;100.00;101517.13;5054118;28;45381;-72
2022/08/26 09:57:53;;;;;;;;;11.33;9.33;;;;;24.86;100.00;101508.72;5051753;28;45444;-73
2022/08/26 10:00:30;;;;;;;;;12.33;12.00;;;;;25.02;100.00;101512.59;5051984;28;47444;-72
2022/08/26 10:03:00;;;;;;;;;12.00;10.33;;;;;25.07;100.00;101516.03;5056371;28;45632;-71
2022/08/26 10:05:30;;;;;;;;;10.00;10.00;;;;;25.05;100.00;101501.69;5040497;28;45500;-72
2022/08/26 10:07:56;;;;;;;;;11.00;8.67;;;;;25.13;100.00;101512.22;5062865;28;45471;-72
2022/08/26 10:10:26;;;;;;;;;9.00;7.67;;;;;25.17;100.00;101494.94;5038269;28;47426;-72
2022/08/26 10:13:05;;;;;;;;;10.00;10.00;;;;;25.26;100.00;101507.22;5039694;28;45524;-74
2022/08/26 10:15:42;;;;;;;;;11.33;10.00;;;;;25.31;100.00;101498.00;5039563;28;45582;-72
2022/08/26 10:18:15;;;;;;;;;10.67;9.00;;;;;25.42;100.00;101512.91;5059906;28;46059;-72
2022/08/26 10:21:07;;;;;;;;;7.67;7.67;;;;;25.41;100.00;101490.41;5057630;28;47643;-71
2022/08/26 10:23:39;;;;;;;;;12.67;9.67;;;;;25.43;100.00;101504.72;5023646;28;45422;-72
2022/08/26 10:26:13;;;;;;;;;10.33;9.67;;;;;25.41;100.00;101497.59;5038230;28;45499;-71
2022/08/26 10:28:47;;;;;;;;;10.00;8.33;;;;;25.37;100.00;101504.97;5045999;28;45341;-72
2022/08/26 10:31:25;;;;;;;;;12.00;10.67;;;;;25.30;100.00;101498.03;5041861;28;46719;-72
2022/08/26 10:33:51;;;;;;;;;8.67;8.67;;;;;25.25;100.00;101502.75;5072056;28;45540;-72
2022/08/26 10:39:07;;;;;;;;;10.00;9.00;;;;;25.41;99.65;101485.00;5038224;28;45373;-72
2022/08/26 10:41:37;;;;;;;;;10.00;9.00;;;;;25.63;100.00;101482.28;5040568;28;46228;-72
2022/08/26 10:44:06;;;;;;;;;13.00;10.00;;;;;25.74;97.60;101481.84;5052688;28;45545;-73
2022/08/26 10:47:00;;;;;;;;;9.00;8.00;;;;;25.82;96.21;101485.13;5041034;28;45425;-71
2022/08/26 10:49:25;;;;;;;;;7.00;7.00;;;;;25.75;94.49;101491.75;5036973;28;45563;-72
2022/08/26 10:52:14;;;;;;;;;6.33;5.00;;;;;25.69;94.64;101494.66;5063130;28;62441;-71
2022/08/26 10:55:00;;;;;;;;;10.33;8.00;;;;;25.55;93.84;101493.41;5040497;28;45575;-72
2022/08/26 10:57:49;;;;;;;;;9.67;7.00;;;;;25.47;93.09;101497.38;5060490;28;45436;-72
2022/08/26 11:03:08;;;;;;;;;7.67;7.67;;;;;25.33;92.38;101479.88;5060966;28;45506;-72
2022/08/26 11:05:33;;;;;;;;;11.00;9.00;;;;;25.39;93.06;101481.44;5053175;28;45543;-70
2022/08/26 11:08:20;;;;;;;;;8.00;8.00;;;;;25.45;94.04;101483.03;5070343;28;45274;-71
2022/08/26 11:10:56;;;;;;;;;8.00;8.00;;;;;25.54;91.08;101482.66;5061761;28;45417;-71
2022/08/26 11:13:57;;;;;;;;;8.67;7.00;;;;;25.65;92.14;101474.09;5058719;28;45754;-70
2022/08/26 11:16:43;;;;;;;;;7.00;7.00;;;;;25.79;92.54;101478.03;5057664;28;45372;-71
2022/08/26 11:19:11;;;;;;;;;9.33;9.33;;;;;25.92;92.67;101469.38;5042097;28;45504;-69
2022/08/26 11:21:48;;;;;;;;;8.33;5.67;;;;;26.02;90.52;101468.03;5058767;28;45420;-71
2022/08/26 11:24:38;;;;;;;;;6.00;6.00;;;;;26.13;90.51;101460.31;5057271;28;46191;-71
2022/08/26 11:27:03;;;;;;;;;10.00;8.00;;;;;26.25;91.56;101467.03;5065834;28;45382;-71